sensor_id;sensor_type;location;lat;lon;timestamp;pressure;altitude;pressure_sealevel;temperature;humidity
30967;BME280;17649;51.836;8.330;2023-05-16T00:01:47;100933.63;;;12.90;100.00
30967;BME280;17649;51.836;8.330;2023-05-16T00:04:47;100927.25;;;13.09;100.00
30967;BME280;17649;51.836;8.330;2023-05-16T00:07:48;100929.59;;;13.28;100.00
30967;BME280;17649;51.836;8.330;2023-05-16T00:10:48;100936.91;;;13.22;100.00
30967;BME280;17649;51.836;8.330;2023-05-16T00:13:48;100937.66;;;13.24;100.00
30967;BME280;17649;51.836;8.330;2023-05-16T00:16:50;100933.28;;;13.10;100.00
30967;BME280;17649;51.836;8.330;2023-05-16T00:19:51;100939.84;;;12.87;100.00
30967;BME280;17649;51.836;8.330;2023-05-16T00:22:57;100936.44;;;13.01;100.00
30967;BME280;17649;51.836;8.330;2023-05-16T00:26:00;100940.47;;;12.76;100.00
30967;BME280;17649;51.836;8.330;2023-05-16T00:29:00;100936.78;;;12.80;100.00
30967;BME280;17649;51.836;8.330;2023-05-16T00:32:02;100945.22;;;12.84;100.00
30967;BME280;17649;51.836;8.330;2023-05-16T00:35:03;100944.34;;;12.55;100.00
30967;BME280;17649;51.836;8.330;2023-05-16T00:38:03;100929.91;;;12.79;100.00
30967;BME280;17649;51.836;8.330;2023-05-16T00:41:04;100935.88;;;12.96;100.00
30967;BME280;17649;51.836;8.330;2023-05-16T00:44:04;100934.97;;;12.52;100.00
30967;BME280;17649;51.836;8.330;2023-05-16T00:47:05;100946.78;;;12.72;100.00
30967;BME280;17649;51.836;8.330;2023-05-16T00:50:05;100942.88;;;12.79;100.00
30967;BME280;17649;51.836;8.330;2023-05-16T00:53:06;100947.81;;;12.70;100.00
30967;BME280;17649;51.836;8.330;2023-05-16T00:56:06;100943.66;;;12.96;100.00
30967;BME280;17649;51.836;8.330;2023-05-16T00:59:07;100946.34;;;12.80;100.00
30967;BME280;17649;51.836;8.330;2023-05-16T01:02:07;100939.28;;;12.68;100.00
30967;BME280;17649;51.836;8.330;2023-05-16T01:05:07;100945.13;;;12.71;100.00
30967;BME280;17649;51.836;8.330;2023-05-16T01:08:08;100948.09;;;12.49;100.00
30967;BME280;17649;51.836;8.330;2023-05-16T01:11:21;100943.91;;;12.77;100.00
30967;BME280;17649;51.836;8.330;2023-05-16T01:17:35;100949.59;;;12.83;100.00
30967;BME280;17649;51.836;8.330;2023-05-16T01:24:03;100950.19;;;12.59;100.00
30967;BME280;17649;51.836;8.330;2023-05-16T01:27:13;100947.91;;;12.38;100.00
30967;BME280;17649;51.836;8.330;2023-05-16T01:30:16;100950.78;;;12.48;100.00
30967;BME280;17649;51.836;8.330;2023-05-16T01:33:27;100950.59;;;12.37;100.00
30967;BME280;17649;51.836;8.330;2023-05-16T01:36:29;100958.47;;;12.65;100.00
30967;BME280;17649;51.836;8.330;2023-05-16T01:39:43;100966.13;;;12.52;100.00
30967;BME280;17649;51.836;8.330;2023-05-16T01:42:44;100964.41;;;12.67;100.00
30967;BME280;17649;51.836;8.330;2023-05-16T01:45:53;100964.03;;;12.73;100.00
30967;BME280;17649;51.836;8.330;2023-05-16T01:49:04;100963.16;;;12.59;100.00
30967;BME280;17649;51.836;8.330;2023-05-16T01:52:07;100973.16;;;12.50;100.00
30967;BME280;17649;51.836;8.330;2023-05-16T01:55:14;100977.66;;;12.17;100.00
30967;BME280;17649;51.836;8.330;2023-05-16T01:58:16;100980.31;;;12.31;100.00
30967;BME280;17649;51.836;8.330;2023-05-16T02:01:16;100982.66;;;12.36;100.00
30967;BME280;17649;51.836;8.330;2023-05-16T02:04:17;100993.13;;;12.18;100.00
30967;BME280;17649;51.836;8.330;2023-05-16T02:07:17;101001.25;;;12.12;100.00
30967;BME280;17649;51.836;8.330;2023-05-16T02:10:17;101009.63;;;11.86;100.00
30967;BME280;17649;51.836;8.330;2023-05-16T02:13:19;101011.31;;;11.54;100.00
30967;BME280;17649;51.836;8.330;2023-05-16T02:16:19;101026.78;;;11.22;100.00
30967;BME280;17649;51.836;8.330;2023-05-16T02:19:19;101035.91;;;11.12;100.00
30967;BME280;17649;51.836;8.330;2023-05-16T02:22:19;101046.13;;;11.15;100.00
30967;BME280;17649;51.836;8.330;2023-05-16T02:25:20;101044.38;;;10.98;100.00
30967;BME280;17649;51.836;8.330;2023-05-16T02:28:20;101051.31;;;10.98;100.00
30967;BME280;17649;51.836;8.330;2023-05-16T02:31:27;101057.03;;;10.87;100.00
30967;BME280;17649;51.836;8.330;2023-05-16T02:34:27;101064.19;;;10.82;100.00
30967;BME280;17649;51.836;8.330;2023-05-16T02:37:27;101058.09;;;10.83;100.00
30967;BME280;17649;51.836;8.330;2023-05-16T02:40:28;101066.75;;;10.65;100.00
30967;BME280;17649;51.836;8.330;2023-05-16T02:43:28;101069.75;;;10.74;100.00
30967;BME280;17649;51.836;8.330;2023-05-16T02:46:30;101066.53;;;10.69;100.00
30967;BME280;17649;51.836;8.330;2023-05-16T02:49:30;101076.44;;;10.79;100.00
30967;BME280;17649;51.836;8.330;2023-05-16T02:52:31;101073.50;;;10.86;100.00
30967;BME280;17649;51.836;8.330;2023-05-16T02:55:31;101074.25;;;10.88;100.00
30967;BME280;17649;51.836;8.330;2023-05-16T02:58:32;101069.44;;;10.81;100.00
30967;BME280;17649;51.836;8.330;2023-05-16T03:01:32;101082.47;;;10.96;100.00
30967;BME280;17649;51.836;8.330;2023-05-16T03:04:33;101087.47;;;10.82;100.00
30967;BME280;17649;51.836;8.330;2023-05-16T03:07:33;101082.19;;;11.02;100.00
30967;BME280;17649;51.836;8.330;2023-05-16T03:10:33;101081.09;;;11.07;100.00
30967;BME280;17649;51.836;8.330;2023-05-16T03:13:34;101087.81;;;10.93;100.00
30967;BME280;17649;51.836;8.330;2023-05-16T03:16:34;101089.63;;;10.74;100.00
30967;BME280;17649;51.836;8.330;2023-05-16T03:19:37;101101.50;;;10.78;100.00
30967;BME280;17649;51.836;8.330;2023-05-16T03:22:37;101100.22;;;10.87;100.00
30967;BME280;17649;51.836;8.330;2023-05-16T03:25:39;101102.16;;;10.82;100.00
30967;BME280;17649;51.836;8.330;2023-05-16T03:28:39;101106.22;;;10.87;100.00
30967;BME280;17649;51.836;8.330;2023-05-16T03:31:40;101106.91;;;10.73;100.00
30967;BME280;17649;51.836;8.330;2023-05-16T03:34:41;101112.44;;;10.83;100.00
30967;BME280;17649;51.836;8.330;2023-05-16T03:37:41;101106.06;;;10.54;100.00
30967;BME280;17649;51.836;8.330;2023-05-16T03:40:41;101109.91;;;10.64;100.00
30967;BME280;17649;51.836;8.330;2023-05-16T03:43:42;101113.34;;;10.65;100.00
30967;BME280;17649;51.836;8.330;2023-05-16T03:46:42;101118.88;;;10.57;100.00
30967;BME280;17649;51.836;8.330;2023-05-16T03:49:42;101126.28;;;10.65;100.00
30967;BME280;17649;51.836;8.330;2023-05-16T03:52:43;101117.72;;;10.45;100.00
30967;BME280;17649;51.836;8.330;2023-05-16T03:55:43;101117.25;;;10.55;100.00
30967;BME280;17649;51.836;8.330;2023-05-16T03:58:43;101118.66;;;10.62;100.00
30967;BME280;17649;51.836;8.330;2023-05-16T04:01:44;101120.50;;;10.60;100.00
30967;BME280;17649;51.836;8.330;2023-05-16T04:04:44;101133.19;;;10.64;100.00
30967;BME280;17649;51.836;8.330;2023-05-16T04:07:44;101143.25;;;10.70;100.00
30967;BME280;17649;51.836;8.330;2023-05-16T04:10:45;101135.56;;;10.69;100.00
30967;BME280;17649;51.836;8.330;2023-05-16T04:13:45;101147.16;;;10.79;100.00
30967;BME280;17649;51.836;8.330;2023-05-16T04:16:45;101151.25;;;11.02;100.00
30967;BME280;17649;51.836;8.330;2023-05-16T04:19:46;101154.97;;;10.96;100.00
30967;BME280;17649;51.836;8.330;2023-05-16T04:22:46;101155.84;;;10.78;100.00
30967;BME280;17649;51.836;8.330;2023-05-16T04:25:46;101158.06;;;10.86;100.00
30967;BME280;17649;51.836;8.330;2023-05-16T04:28:47;101156.84;;;10.75;100.00
30967;BME280;17649;51.836;8.330;2023-05-16T04:31:47;101159.81;;;10.85;100.00
30967;BME280;17649;51.836;8.330;2023-05-16T04:34:47;101159.19;;;10.80;100.00
30967;BME280;17649;51.836;8.330;2023-05-16T04:37:49;101168.00;;;11.12;100.00
30967;BME280;17649;51.836;8.330;2023-05-16T04:40:49;101176.41;;;11.17;100.00
30967;BME280;17649;51.836;8.330;2023-05-16T04:43:52;101186.03;;;11.32;100.00
30967;BME280;17649;51.836;8.330;2023-05-16T04:46:53;101179.34;;;11.10;100.00
30967;BME280;17649;51.836;8.330;2023-05-16T04:49:54;101187.28;;;11.07;100.00
30967;BME280;17649;51.836;8.330;2023-05-16T04:52:54;101185.47;;;11.26;100.00
30967;BME280;17649;51.836;8.330;2023-05-16T04:55:55;101190.63;;;11.09;100.00
30967;BME280;17649;51.836;8.330;2023-05-16T04:58:55;101193.47;;;10.85;100.00
30967;BME280;17649;51.836;8.330;2023-05-16T05:01:55;101202.03;;;10.87;100.00
30967;BME280;17649;51.836;8.330;2023-05-16T05:04:56;101204.41;;;11.09;100.00
30967;BME280;17649;51.836;8.330;2023-05-16T05:07:56;101206.84;;;11.31;100.00
30967;BME280;17649;51.836;8.330;2023-05-16T05:10:57;101211.69;;;11.37;100.00
30967;BME280;17649;51.836;8.330;2023-05-16T05:13:57;101202.25;;;11.00;100.00
30967;BME280;17649;51.836;8.330;2023-05-16T05:16:57;101213.09;;;11.08;100.00
30967;BME280;17649;51.836;8.330;2023-05-16T05:19:58;101209.63;;;10.90;100.00
30967;BME280;17649;51.836;8.330;2023-05-16T05:22:58;101215.34;;;10.97;100.00
30967;BME280;17649;51.836;8.330;2023-05-16T05:25:58;101222.47;;;10.74;100.00
30967;BME280;17649;51.836;8.330;2023-05-16T05:28:58;101229.72;;;11.04;100.00
30967;BME280;17649;51.836;8.330;2023-05-16T05:31:59;101234.44;;;11.13;100.00
30967;BME280;17649;51.836;8.330;2023-05-16T05:34:59;101237.78;;;11.15;100.00
30967;BME280;17649;51.836;8.330;2023-05-16T05:37:59;101242.19;;;10.77;100.00
30967;BME280;17649;51.836;8.330;2023-05-16T05:41:00;101235.34;;;10.57;100.00
30967;BME280;17649;51.836;8.330;2023-05-16T05:44:01;101247.47;;;10.55;100.00
30967;BME280;17649;51.836;8.330;2023-05-16T05:47:01;101252.44;;;10.21;100.00
30967;BME280;17649;51.836;8.330;2023-05-16T05:50:02;101254.19;;;10.20;100.00
30967;BME280;17649;51.836;8.330;2023-05-16T05:53:02;101263.19;;;9.91;100.00
30967;BME280;17649;51.836;8.330;2023-05-16T05:56:02;101259.81;;;9.89;100.00
30967;BME280;17649;51.836;8.330;2023-05-16T05:59:03;101256.91;;;9.97;100.00
30967;BME280;17649;51.836;8.330;2023-05-16T06:02:03;101268.16;;;9.96;100.00
30967;BME280;17649;51.836;8.330;2023-05-16T06:05:03;101263.44;;;10.05;100.00
30967;BME280;17649;51.836;8.330;2023-05-16T06:08:04;101263.50;;;10.04;100.00
30967;BME280;17649;51.836;8.330;2023-05-16T06:11:04;101269.41;;;10.28;100.00
30967;BME280;17649;51.836;8.330;2023-05-16T06:14:05;101271.34;;;10.62;100.00
30967;BME280;17649;51.836;8.330;2023-05-16T06:17:05;101285.13;;;11.00;100.00
30967;BME280;17649;51.836;8.330;2023-05-16T06:20:06;101287.16;;;11.31;100.00
30967;BME280;17649;51.836;8.330;2023-05-16T06:23:06;101278.41;;;11.51;100.00
30967;BME280;17649;51.836;8.330;2023-05-16T06:26:07;101271.69;;;11.47;100.00
30967;BME280;17649;51.836;8.330;2023-05-16T06:29:07;101282.72;;;11.86;100.00
30967;BME280;17649;51.836;8.330;2023-05-16T06:32:07;101288.38;;;11.58;100.00
30967;BME280;17649;51.836;8.330;2023-05-16T06:35:08;101291.03;;;11.76;100.00
30967;BME280;17649;51.836;8.330;2023-05-16T06:38:08;101288.47;;;11.57;100.00
30967;BME280;17649;51.836;8.330;2023-05-16T06:41:09;101296.09;;;11.60;100.00
30967;BME280;17649;51.836;8.330;2023-05-16T06:44:09;101301.63;;;11.35;100.00
30967;BME280;17649;51.836;8.330;2023-05-16T06:47:10;101297.31;;;11.17;100.00
30967;BME280;17649;51.836;8.330;2023-05-16T06:50:11;101298.47;;;11.47;100.00
30967;BME280;17649;51.836;8.330;2023-05-16T06:53:11;101300.78;;;11.34;100.00
30967;BME280;17649;51.836;8.330;2023-05-16T06:56:11;101297.28;;;11.35;100.00
30967;BME280;17649;51.836;8.330;2023-05-16T06:59:12;101292.72;;;11.58;100.00
30967;BME280;17649;51.836;8.330;2023-05-16T07:02:12;101299.56;;;12.12;100.00
30967;BME280;17649;51.836;8.330;2023-05-16T07:05:12;101297.41;;;11.69;100.00
30967;BME280;17649;51.836;8.330;2023-05-16T07:08:12;101292.97;;;11.71;100.00
30967;BME280;17649;51.836;8.330;2023-05-16T07:11:13;101293.72;;;11.55;100.00
30967;BME280;17649;51.836;8.330;2023-05-16T07:14:13;101303.91;;;11.77;100.00
30967;BME280;17649;51.836;8.330;2023-05-16T07:17:13;101302.50;;;11.70;100.00
30967;BME280;17649;51.836;8.330;2023-05-16T07:20:14;101297.16;;;11.73;100.00
30967;BME280;17649;51.836;8.330;2023-05-16T07:23:14;101307.00;;;11.49;100.00
30967;BME280;17649;51.836;8.330;2023-05-16T07:26:15;101309.75;;;11.63;100.00
30967;BME280;17649;51.836;8.330;2023-05-16T07:29:15;101310.97;;;11.74;100.00
30967;BME280;17649;51.836;8.330;2023-05-16T07:32:15;101318.97;;;12.22;100.00
30967;BME280;17649;51.836;8.330;2023-05-16T07:35:16;101303.09;;;12.44;100.00
30967;BME280;17649;51.836;8.330;2023-05-16T07:38:16;101307.50;;;12.60;100.00
30967;BME280;17649;51.836;8.330;2023-05-16T07:41:16;101303.38;;;13.36;100.00
30967;BME280;17649;51.836;8.330;2023-05-16T07:44:16;101307.66;;;13.21;100.00
30967;BME280;17649;51.836;8.330;2023-05-16T07:47:17;101298.09;;;13.06;100.00
30967;BME280;17649;51.836;8.330;2023-05-16T07:50:17;101308.97;;;12.65;100.00
30967;BME280;17649;51.836;8.330;2023-05-16T07:53:17;101311.03;;;12.08;100.00
30967;BME280;17649;51.836;8.330;2023-05-16T07:56:17;101308.50;;;11.89;100.00
30967;BME280;17649;51.836;8.330;2023-05-16T07:59:17;101309.75;;;12.50;100.00
30967;BME280;17649;51.836;8.330;2023-05-16T08:02:18;101301.50;;;12.75;100.00
30967;BME280;17649;51.836;8.330;2023-05-16T08:05:18;101302.69;;;12.85;100.00
30967;BME280;17649;51.836;8.330;2023-05-16T08:11:45;101313.75;;;12.40;100.00
30967;BME280;17649;51.836;8.330;2023-05-16T08:15:04;101320.06;;;12.51;100.00
30967;BME280;17649;51.836;8.330;2023-05-16T08:18:12;101312.81;;;12.90;100.00
30967;BME280;17649;51.836;8.330;2023-05-16T08:21:22;101310.88;;;13.26;100.00
30967;BME280;17649;51.836;8.330;2023-05-16T08:31:42;101315.44;;;13.05;100.00
30967;BME280;17649;51.836;8.330;2023-05-16T08:34:55;101312.34;;;12.99;100.00
30967;BME280;17649;51.836;8.330;2023-05-16T08:37:58;101312.19;;;13.33;100.00
30967;BME280;17649;51.836;8.330;2023-05-16T08:41:05;101316.13;;;13.86;100.00
30967;BME280;17649;51.836;8.330;2023-05-16T08:44:38;101310.59;;;14.51;100.00
30967;BME280;17649;51.836;8.330;2023-05-16T08:47:47;101311.38;;;14.37;100.00
30967;BME280;17649;51.836;8.330;2023-05-16T08:51:02;101298.91;;;14.42;100.00
30967;BME280;17649;51.836;8.330;2023-05-16T08:54:07;101301.00;;;13.63;100.00
30967;BME280;17649;51.836;8.330;2023-05-16T08:57:24;101310.88;;;13.26;100.00
30967;BME280;17649;51.836;8.330;2023-05-16T09:00:30;101317.66;;;13.29;100.00
30967;BME280;17649;51.836;8.330;2023-05-16T09:03:35;101310.75;;;13.89;100.00
30967;BME280;17649;51.836;8.330;2023-05-16T09:06:35;101308.75;;;14.23;100.00
30967;BME280;17649;51.836;8.330;2023-05-16T09:09:46;101316.03;;;14.18;100.00
30967;BME280;17649;51.836;8.330;2023-05-16T09:12:59;101307.31;;;14.33;100.00
30967;BME280;17649;51.836;8.330;2023-05-16T09:16:09;101314.41;;;14.01;100.00
30967;BME280;17649;51.836;8.330;2023-05-16T09:19:13;101309.31;;;14.14;100.00
30967;BME280;17649;51.836;8.330;2023-05-16T09:22:20;101314.47;;;14.58;100.00
30967;BME280;17649;51.836;8.330;2023-05-16T09:25:54;101313.66;;;14.57;100.00
30967;BME280;17649;51.836;8.330;2023-05-16T09:29:03;101304.69;;;14.33;100.00
30967;BME280;17649;51.836;8.330;2023-05-16T09:32:09;101313.44;;;13.88;100.00
30967;BME280;17649;51.836;8.330;2023-05-16T09:35:20;101303.78;;;13.90;100.00
30967;BME280;17649;51.836;8.330;2023-05-16T09:38:21;101312.56;;;14.03;100.00
30967;BME280;17649;51.836;8.330;2023-05-16T09:41:21;101309.31;;;13.99;100.00
30967;BME280;17649;51.836;8.330;2023-05-16T09:44:22;101298.22;;;14.54;100.00
30967;BME280;17649;51.836;8.330;2023-05-16T09:47:31;101300.00;;;15.09;100.00
30967;BME280;17649;51.836;8.330;2023-05-16T09:50:32;101308.25;;;14.89;93.16
30967;BME280;17649;51.836;8.330;2023-05-16T09:53:35;101318.22;;;15.24;96.09
30967;BME280;17649;51.836;8.330;2023-05-16T09:56:49;101304.72;;;14.90;96.27
30967;BME280;17649;51.836;8.330;2023-05-16T09:59:55;101314.25;;;15.18;100.00
30967;BME280;17649;51.836;8.330;2023-05-16T10:06:35;101314.59;;;15.26;100.00
30967;BME280;17649;51.836;8.330;2023-05-16T10:09:56;101312.69;;;14.87;97.03
30967;BME280;17649;51.836;8.330;2023-05-16T10:12:57;101299.41;;;14.77;100.00
30967;BME280;17649;51.836;8.330;2023-05-16T10:16:01;101301.50;;;15.13;100.00
30967;BME280;17649;51.836;8.330;2023-05-16T10:19:05;101299.78;;;15.54;93.97
30967;BME280;17649;51.836;8.330;2023-05-16T10:22:05;101307.34;;;16.10;83.79
30967;BME280;17649;51.836;8.330;2023-05-16T10:28:25;101296.16;;;16.72;76.78
30967;BME280;17649;51.836;8.330;2023-05-16T10:31:25;101304.75;;;16.23;75.50
30967;BME280;17649;51.836;8.330;2023-05-16T10:34:27;101306.81;;;15.93;78.78
30967;BME280;17649;51.836;8.330;2023-05-16T10:37:28;101294.59;;;16.44;81.45
30967;BME280;17649;51.836;8.330;2023-05-16T10:40:30;101286.59;;;17.20;66.11
30967;BME280;17649;51.836;8.330;2023-05-16T10:43:34;101287.97;;;17.37;68.76
30967;BME280;17649;51.836;8.330;2023-05-16T10:46:34;101276.03;;;17.46;68.57
30967;BME280;17649;51.836;8.330;2023-05-16T10:49:34;101287.88;;;17.39;62.34
30967;BME280;17649;51.836;8.330;2023-05-16T10:52:51;101292.59;;;16.73;68.25
30967;BME280;17649;51.836;8.330;2023-05-16T10:58:58;101308.38;;;15.95;75.74
30967;BME280;17649;51.836;8.330;2023-05-16T11:01:58;101288.09;;;16.50;78.47
30967;BME280;17649;51.836;8.330;2023-05-16T11:05:01;101289.13;;;17.09;72.03
30967;BME280;17649;51.836;8.330;2023-05-16T11:08:05;101288.38;;;18.14;65.21
30967;BME280;17649;51.836;8.330;2023-05-16T11:17:28;101294.03;;;16.64;64.23
30967;BME280;17649;51.836;8.330;2023-05-16T11:20:29;101315.28;;;16.34;74.18
30967;BME280;17649;51.836;8.330;2023-05-16T11:23:30;101305.97;;;15.92;84.31
30967;BME280;17649;51.836;8.330;2023-05-16T11:26:31;101308.09;;;15.46;88.48
30967;BME280;17649;51.836;8.330;2023-05-16T11:29:33;101296.88;;;17.11;70.54
30967;BME280;17649;51.836;8.330;2023-05-16T11:32:34;101300.13;;;18.77;67.58
30967;BME280;17649;51.836;8.330;2023-05-16T11:35:34;101295.44;;;20.30;52.56
30967;BME280;17649;51.836;8.330;2023-05-16T11:38:36;101290.69;;;21.44;49.53
30967;BME280;17649;51.836;8.330;2023-05-16T11:41:42;101289.19;;;20.92;47.47
30967;BME280;17649;51.836;8.330;2023-05-16T11:44:43;101296.38;;;19.34;48.44
30967;BME280;17649;51.836;8.330;2023-05-16T11:47:45;101303.56;;;17.39;58.48
30967;BME280;17649;51.836;8.330;2023-05-16T11:50:48;101294.44;;;16.96;64.32
30967;BME280;17649;51.836;8.330;2023-05-16T11:53:49;101313.34;;;18.64;55.33
30967;BME280;17649;51.836;8.330;2023-05-16T11:56:50;101277.56;;;20.94;45.19
30967;BME280;17649;51.836;8.330;2023-05-16T11:59:51;101285.13;;;21.66;39.85
30967;BME280;17649;51.836;8.330;2023-05-16T12:03:00;101280.81;;;23.85;39.02
30967;BME280;17649;51.836;8.330;2023-05-16T12:06:01;101287.84;;;20.06;42.51
30967;BME280;17649;51.836;8.330;2023-05-16T12:09:10;101284.38;;;18.66;43.56
30967;BME280;17649;51.836;8.330;2023-05-16T12:12:10;101282.03;;;17.94;46.11
30967;BME280;17649;51.836;8.330;2023-05-16T12:15:11;101275.72;;;19.52;43.90
30967;BME280;17649;51.836;8.330;2023-05-16T12:18:11;101266.66;;;21.08;42.57
30967;BME280;17649;51.836;8.330;2023-05-16T12:21:15;101266.81;;;23.13;39.47
30967;BME280;17649;51.836;8.330;2023-05-16T12:24:36;101262.16;;;23.61;36.48
30967;BME280;17649;51.836;8.330;2023-05-16T12:27:48;101262.53;;;24.52;36.56
30967;BME280;17649;51.836;8.330;2023-05-16T12:30:49;101252.69;;;26.72;33.59
30967;BME280;17649;51.836;8.330;2023-05-16T12:33:51;101258.31;;;26.38;29.83
30967;BME280;17649;51.836;8.330;2023-05-16T12:36:52;101257.16;;;23.58;33.11
30967;BME280;17649;51.836;8.330;2023-05-16T12:40:03;101255.66;;;22.00;35.09
30967;BME280;17649;51.836;8.330;2023-05-16T12:43:14;101263.00;;;20.80;38.16
30967;BME280;17649;51.836;8.330;2023-05-16T12:46:15;101266.59;;;19.35;41.43
30967;BME280;17649;51.836;8.330;2023-05-16T12:49:19;101279.94;;;18.44;41.01
30967;BME280;17649;51.836;8.330;2023-05-16T12:52:20;101272.56;;;18.38;43.74
30967;BME280;17649;51.836;8.330;2023-05-16T12:55:21;101265.09;;;19.53;45.96
30967;BME280;17649;51.836;8.330;2023-05-16T12:58:21;101270.22;;;22.14;40.62
30967;BME280;17649;51.836;8.330;2023-05-16T13:01:22;101267.25;;;22.36;38.13
30967;BME280;17649;51.836;8.330;2023-05-16T13:04:22;101274.41;;;21.00;39.64
30967;BME280;17649;51.836;8.330;2023-05-16T13:07:22;101278.66;;;20.21;41.58
30967;BME280;17649;51.836;8.330;2023-05-16T13:10:23;101279.66;;;19.99;42.63
30967;BME280;17649;51.836;8.330;2023-05-16T13:13:25;101277.78;;;18.27;44.93
30967;BME280;17649;51.836;8.330;2023-05-16T13:16:28;101278.06;;;17.77;47.77
30967;BME280;17649;51.836;8.330;2023-05-16T13:19:28;101288.44;;;17.07;51.21
30967;BME280;17649;51.836;8.330;2023-05-16T13:22:30;101285.09;;;17.29;57.56
30967;BME280;17649;51.836;8.330;2023-05-16T13:25:31;101289.94;;;18.28;50.92
30967;BME280;17649;51.836;8.330;2023-05-16T13:28:32;101291.88;;;18.48;49.88
30967;BME280;17649;51.836;8.330;2023-05-16T13:31:32;101280.28;;;18.95;47.14
30967;BME280;17649;51.836;8.330;2023-05-16T13:34:32;101281.59;;;19.01;51.00
30967;BME280;17649;51.836;8.330;2023-05-16T13:37:33;101294.00;;;18.21;49.90
30967;BME280;17649;51.836;8.330;2023-05-16T13:40:36;101288.91;;;17.84;48.41
30967;BME280;17649;51.836;8.330;2023-05-16T13:43:39;101294.56;;;17.43;50.78
30967;BME280;17649;51.836;8.330;2023-05-16T13:46:39;101303.06;;;17.57;51.94
30967;BME280;17649;51.836;8.330;2023-05-16T13:49:46;101308.47;;;17.43;51.02
30967;BME280;17649;51.836;8.330;2023-05-16T13:52:46;101309.22;;;18.15;50.49
30967;BME280;17649;51.836;8.330;2023-05-16T13:55:47;101309.47;;;17.77;53.09
30967;BME280;17649;51.836;8.330;2023-05-16T13:58:47;101306.63;;;20.52;45.65
30967;BME280;17649;51.836;8.330;2023-05-16T14:01:49;101295.13;;;22.29;42.17
30967;BME280;17649;51.836;8.330;2023-05-16T14:04:54;101301.00;;;23.33;38.19
30967;BME280;17649;51.836;8.330;2023-05-16T14:07:55;101312.31;;;21.48;40.67
30967;BME280;17649;51.836;8.330;2023-05-16T14:11:11;101310.88;;;20.23;43.08
30967;BME280;17649;51.836;8.330;2023-05-16T14:14:26;101305.63;;;19.17;45.16
30967;BME280;17649;51.836;8.330;2023-05-16T14:17:26;101309.31;;;18.14;49.62
30967;BME280;17649;51.836;8.330;2023-05-16T14:20:27;101311.88;;;19.80;45.18
30967;BME280;17649;51.836;8.330;2023-05-16T14:23:27;101303.84;;;21.44;43.06
30967;BME280;17649;51.836;8.330;2023-05-16T14:26:27;101319.88;;;20.00;43.25
30967;BME280;17649;51.836;8.330;2023-05-16T14:29:28;101315.59;;;17.89;47.00
30967;BME280;17649;51.836;8.330;2023-05-16T14:32:28;101326.28;;;17.38;49.75
30967;BME280;17649;51.836;8.330;2023-05-16T14:35:28;101329.78;;;16.89;54.58
30967;BME280;17649;51.836;8.330;2023-05-16T14:38:30;101331.78;;;16.60;58.01
30967;BME280;17649;51.836;8.330;2023-05-16T14:41:30;101335.81;;;17.03;54.83
30967;BME280;17649;51.836;8.330;2023-05-16T14:44:30;101330.72;;;17.25;52.35
30967;BME280;17649;51.836;8.330;2023-05-16T14:47:30;101336.47;;;17.54;55.26
30967;BME280;17649;51.836;8.330;2023-05-16T14:50:31;101330.56;;;18.56;48.98
30967;BME280;17649;51.836;8.330;2023-05-16T14:53:34;101328.56;;;20.21;47.92
30967;BME280;17649;51.836;8.330;2023-05-16T14:56:34;101316.16;;;24.62;39.98
30967;BME280;17649;51.836;8.330;2023-05-16T14:59:35;101333.78;;;24.53;37.05
30967;BME280;17649;51.836;8.330;2023-05-16T15:02:35;101333.16;;;23.64;38.99
30967;BME280;17649;51.836;8.330;2023-05-16T15:05:43;101329.66;;;24.85;38.80
30967;BME280;17649;51.836;8.330;2023-05-16T15:08:46;101333.09;;;25.27;37.52
30967;BME280;17649;51.836;8.330;2023-05-16T15:12:04;101333.34;;;23.17;39.41
30967;BME280;17649;51.836;8.330;2023-05-16T15:15:57;101341.97;;;20.39;42.49
30967;BME280;17649;51.836;8.330;2023-05-16T15:19:01;101339.19;;;19.46;45.77
30967;BME280;17649;51.836;8.330;2023-05-16T15:22:04;101350.59;;;19.13;46.75
30967;BME280;17649;51.836;8.330;2023-05-16T15:25:07;101341.97;;;19.33;47.93
30967;BME280;17649;51.836;8.330;2023-05-16T15:28:08;101346.94;;;18.93;46.46
30967;BME280;17649;51.836;8.330;2023-05-16T15:31:08;101345.91;;;18.27;48.21
30967;BME280;17649;51.836;8.330;2023-05-16T15:34:09;101353.44;;;17.96;51.44
30967;BME280;17649;51.836;8.330;2023-05-16T15:37:10;101345.34;;;17.88;50.44
30967;BME280;17649;51.836;8.330;2023-05-16T15:40:11;101354.00;;;17.65;57.40
30967;BME280;17649;51.836;8.330;2023-05-16T15:43:11;101350.38;;;18.13;55.59
30967;BME280;17649;51.836;8.330;2023-05-16T15:46:11;101359.22;;;17.41;58.85
30967;BME280;17649;51.836;8.330;2023-05-16T15:49:12;101363.56;;;17.29;61.04
30967;BME280;17649;51.836;8.330;2023-05-16T15:52:12;101370.31;;;17.08;57.20
30967;BME280;17649;51.836;8.330;2023-05-16T15:55:12;101362.84;;;17.27;57.75
30967;BME280;17649;51.836;8.330;2023-05-16T15:58:13;101367.13;;;16.79;61.81
30967;BME280;17649;51.836;8.330;2023-05-16T16:01:13;101364.59;;;20.51;47.63
30967;BME280;17649;51.836;8.330;2023-05-16T16:04:13;101364.25;;;19.50;44.71
30967;BME280;17649;51.836;8.330;2023-05-16T16:07:13;101365.31;;;18.24;48.64
30967;BME280;17649;51.836;8.330;2023-05-16T16:10:14;101374.22;;;16.89;58.92
30967;BME280;17649;51.836;8.330;2023-05-16T16:13:14;101371.88;;;16.21;74.50
30967;BME280;17649;51.836;8.330;2023-05-16T16:16:14;101377.00;;;16.10;69.97
30967;BME280;17649;51.836;8.330;2023-05-16T16:19:15;101383.47;;;16.17;66.49